Time;durP1;ratioP1;P1;durP2;ratioP2;P2;SDS_P1;SDS_P2;PMS_P1;PMS_P2;Temp;Humidity;BMP_temperature;BMP_pressure;BME280_temperature;BME280_humidity;BME280_pressure;Samples;Min_cycle;Max_cycle;Signal;HPM_P1;HPM_P2
2022/09/28 00:01:53;;;;;;;6.40;3.47;;;;;;;-143.48;84.75;77805.94;5097929;28;20112;-43
2022/09/28 00:04:19;;;;;;;10.82;4.10;;;;;;;-143.48;84.48;77790.06;5097426;28;20047;-40
2022/09/28 00:06:46;;;;;;;9.02;3.88;;;;;;;-143.48;84.25;77788.09;5097743;28;20039;-40
2022/09/28 00:09:12;;;;;;;7.78;4.10;;;;;;;-143.48;84.54;77778.19;5097565;28;20374;-40
2022/09/28 00:11:38;;;;;;;9.15;4.60;;;;;;;-143.48;84.42;77772.22;5096583;28;20029;-38
2022/09/28 00:14:06;;;;;;;8.13;5.03;;;;;;;-143.48;84.37;77768.25;5097007;28;20032;-39
2022/09/28 00:16:35;;;;;;;10.43;5.65;;;;;;;-143.48;84.39;77774.22;5097119;28;20024;-39
2022/09/28 00:19:00;;;;;;;8.73;4.82;;;;;;;-143.48;83.82;77774.22;5097205;28;20042;-39
2022/09/28 00:21:31;;;;;;;8.68;4.70;;;;;;;-143.48;83.38;77782.16;5097465;28;20019;-40
2022/09/28 00:26:52;;;;;;;10.40;4.78;;;;;;;-143.48;83.61;77784.13;5097792;28;20034;-39
2022/09/28 00:29:25;;;;;;;8.43;4.63;;;;;;;-143.48;83.43;77794.03;5097148;28;20066;-40
2022/09/28 00:31:52;;;;;;;12.13;4.75;;;;;;;-143.48;84.33;77790.06;5078870;28;20031;-39
2022/09/28 00:34:19;;;;;;;11.75;5.10;;;;;;;-143.48;84.33;77796.03;5097459;28;20028;-40
2022/09/28 00:36:45;;;;;;;10.70;5.00;;;;;;;-143.48;84.06;77798.00;5097348;28;20051;-39
2022/09/28 00:39:13;;;;;;;7.60;4.72;;;;;;;-143.48;84.81;77782.16;5078681;28;20039;-40
2022/09/28 00:41:38;;;;;;;6.40;4.25;;;;;;;-143.48;84.17;77788.09;5078608;28;20020;-40
2022/09/28 00:44:33;;;;;;;8.95;4.80;;;;;;;-143.48;84.14;77792.06;5096568;28;20052;-39
2022/09/28 00:47:16;;;;;;;9.43;4.85;;;;;;;-143.48;84.46;77794.03;5096950;28;20024;-40
2022/09/28 00:49:46;;;;;;;9.23;5.85;;;;;;;-143.48;85.08;77800.00;5096476;28;20073;-40
2022/09/28 00:52:17;;;;;;;7.80;4.63;;;;;;;-143.48;85.18;77786.13;5096465;28;20031;-39
2022/09/28 00:54:45;;;;;;;12.95;4.65;;;;;;;-143.48;85.52;77811.88;5097551;28;20400;-39
2022/09/28 00:57:12;;;;;;;10.85;4.43;;;;;;;-143.48;85.65;77801.97;5096786;28;20020;-40
2022/09/28 00:59:38;;;;;;;9.40;4.57;;;;;;;-143.48;85.77;77815.84;5096553;28;20374;-39
2022/09/28 01:02:03;;;;;;;6.03;3.92;;;;;;;-143.48;86.04;77813.88;5094904;28;20028;-38
2022/09/28 01:04:29;;;;;;;11.77;4.15;;;;;;;-143.48;86.48;77801.97;5096826;28;20416;-39
2022/09/28 01:06:56;;;;;;;8.38;3.78;;;;;;;-143.48;85.70;77796.03;5096562;28;20020;-38
2022/09/28 01:09:23;;;;;;;7.35;3.72;;;;;;;-143.48;85.54;77794.03;5096185;28;20028;-39
2022/09/28 01:11:49;;;;;;;10.50;3.80;;;;;;;-143.48;85.21;77805.94;5078057;28;20028;-40
2022/09/28 01:14:15;;;;;;;8.73;4.13;;;;;;;-143.48;85.46;77803.97;5096191;28;20439;-41
2022/09/28 01:17:07;;;;;;;6.25;3.58;;;;;;;-143.48;85.61;77807.94;5078404;28;20470;-40
2022/09/28 01:20:04;;;;;;;5.25;3.50;;;;;;;-143.48;85.36;77798.00;5058924;28;20111;-40
2022/09/28 01:23:11;;;;;;;7.28;3.40;;;;;;;-143.48;85.46;77807.94;5095896;28;20012;-38
2022/09/28 01:25:49;;;;;;;5.38;3.50;;;;;;;-143.48;85.93;77801.97;5096148;28;20017;-39
2022/09/28 01:28:18;;;;;;;5.72;3.33;;;;;;;-143.48;85.51;77801.97;5094666;28;20070;-38
2022/09/28 01:31:08;;;;;;;5.90;3.50;;;;;;;-143.48;85.37;77809.91;5078316;28;20020;-38
2022/09/28 01:33:40;;;;;;;5.72;3.13;;;;;;;-143.48;85.33;77801.97;5095530;28;20056;-38
2022/09/28 01:36:14;;;;;;;8.60;3.20;;;;;;;-143.48;85.22;77796.03;5096368;28;20485;-38
2022/09/28 01:38:47;;;;;;;7.57;2.80;;;;;;;-143.48;84.63;77809.91;5077923;28;20278;-38
2022/09/28 01:41:16;;;;;;;5.32;2.58;;;;;;;-143.48;85.06;77817.84;5096187;28;20059;-39
2022/09/28 01:43:48;;;;;;;5.30;2.40;;;;;;;-143.48;85.62;77817.84;5095670;28;20051;-38
2022/09/28 01:46:20;;;;;;;5.65;2.20;;;;;;;-143.48;85.76;77805.94;5095555;28;20024;-39
2022/09/28 01:48:54;;;;;;;4.82;2.03;;;;;;;-143.48;85.58;77800.00;5095351;28;20077;-39
2022/09/28 01:51:35;;;;;;;5.13;2.00;;;;;;;-143.48;85.80;77803.97;5095484;28;20027;-39
2022/09/28 01:54:17;;;;;;;4.72;1.80;;;;;;;-143.48;85.11;77811.88;5095362;28;20444;-39
2022/09/28 01:56:55;;;;;;;5.10;2.05;;;;;;;-143.48;85.35;77809.91;5095647;28;20028;-39
2022/09/28 01:59:25;;;;;;;3.75;1.67;;;;;;;-143.48;85.48;77798.00;5095530;28;20029;-39
2022/09/28 02:01:55;;;;;;;5.75;1.40;;;;;;;-143.48;84.96;77801.97;5095274;28;20032;-39
2022/09/28 02:04:46;;;;;;;2.90;1.40;;;;;;;-143.48;85.41;77815.84;5095193;28;20032;-39
2022/09/28 02:07:17;;;;;;;3.53;1.33;;;;;;;-143.48;85.65;77825.78;5095144;28;20470;-39
2022/09/28 02:10:08;;;;;;;3.03;1.17;;;;;;;-143.48;85.68;77833.69;5095021;28;20069;-40
2022/09/28 02:12:42;;;;;;;2.85;1.25;;;;;;;-143.48;85.84;77813.88;5085572;28;20122;-39
2022/09/28 02:15:13;;;;;;;5.95;1.40;;;;;;;-143.48;85.33;77819.81;5094752;28;20034;-39
2022/09/28 02:17:39;;;;;;;2.22;1.00;;;;;;;-143.48;85.71;77805.94;5095723;28;20028;-39
2022/09/28 02:20:06;;;;;;;6.07;1.30;;;;;;;-143.48;85.25;77807.94;5077094;28;20016;-39
2022/09/28 02:22:46;;;;;;;3.38;1.00;;;;;;;-143.48;85.26;77815.84;5094838;28;20028;-39
2022/09/28 02:25:34;;;;;;;3.28;0.90;;;;;;;-143.48;85.07;77839.66;5077260;28;20028;-38
2022/09/28 02:28:03;;;;;;;2.63;1.10;;;;;;;-143.48;85.33;77843.63;5094455;28;20401;-38
2022/09/28 02:30:30;;;;;;;3.38;1.02;;;;;;;-143.48;85.56;77847.59;5094939;28;20387;-39
2022/09/28 02:33:05;;;;;;;2.65;0.80;;;;;;;-143.48;85.60;77833.69;5076529;28;20462;-38
2022/09/28 02:35:30;;;;;;;3.15;1.05;;;;;;;-143.48;85.28;77839.66;5094922;28;20020;-39
2022/09/28 02:37:56;;;;;;;3.47;1.10;;;;;;;-143.48;84.98;77841.63;5095075;28;20047;-39
2022/09/28 02:40:27;;;;;;;2.08;0.80;;;;;;;-143.48;85.02;77845.59;5076359;28;20020;-40
2022/09/28 02:42:58;;;;;;;2.80;1.30;;;;;;;-143.48;84.72;77837.66;5094518;28;20542;-40
2022/09/28 02:45:36;;;;;;;1.50;0.77;;;;;;;-143.48;84.97;77837.66;5095186;28;20055;-39
2022/09/28 02:48:07;;;;;;;1.27;0.80;;;;;;;-143.48;84.90;77847.59;5094812;28;20482;-40
2022/09/28 02:50:51;;;;;;;4.63;1.02;;;;;;;-143.48;85.37;77839.66;5094284;28;20024;-39
2022/09/28 02:53:55;;;;;;;2.35;1.00;;;;;;;-143.48;85.08;77843.63;5094239;28;20032;-40
2022/09/28 02:56:58;;;;;;;4.47;0.90;;;;;;;-143.48;85.41;77863.44;5093469;28;20573;-40
2022/09/28 02:59:32;;;;;;;1.40;0.70;;;;;;;-143.48;85.56;77863.44;5094423;28;20023;-39
2022/09/28 03:02:29;;;;;;;2.00;0.70;;;;;;;-143.48;85.59;77845.59;5094111;28;20289;-41
2022/09/28 03:05:22;;;;;;;4.88;0.75;;;;;;;-143.48;85.63;77843.63;5094677;28;20040;-40
2022/09/28 03:08:05;;;;;;;5.63;0.73;;;;;;;-143.48;85.45;77853.53;5094021;28;20024;-39
2022/09/28 03:10:43;;;;;;;4.28;0.90;;;;;;;-143.48;84.84;77871.38;5075522;28;20530;-40
2022/09/28 03:13:10;;;;;;;1.30;0.60;;;;;;;-143.48;85.13;77883.28;5075859;28;20364;-39
2022/09/28 03:15:36;;;;;;;4.05;0.50;;;;;;;-143.48;85.59;77883.28;5094498;28;20020;-40
2022/09/28 03:18:02;;;;;;;3.08;0.88;;;;;;;-143.48;85.44;77875.34;5094201;28;20416;-40
2022/09/28 03:20:29;;;;;;;4.35;0.93;;;;;;;-143.48;85.70;77883.28;5076468;28;20032;-39
2022/09/28 03:22:54;;;;;;;0.98;0.63;;;;;;;-143.48;85.59;77859.47;5093790;28;20024;-39
2022/09/28 03:25:20;;;;;;;1.75;0.70;;;;;;;-143.48;85.29;77855.50;5092968;28;20024;-40
2022/09/28 03:27:45;;;;;;;2.78;0.50;;;;;;;-143.48;85.35;77859.47;5094088;28;20024;-40
2022/09/28 03:30:12;;;;;;;1.23;0.60;;;;;;;-143.48;85.80;77853.53;5094099;28;20475;-39
2022/09/28 03:32:38;;;;;;;2.88;0.75;;;;;;;-143.48;85.92;77849.56;5094533;28;20107;-39
2022/09/28 03:35:05;;;;;;;2.03;0.52;;;;;;;-143.48;85.23;77855.50;5093652;28;20077;-39
2022/09/28 03:37:30;;;;;;;0.85;0.50;;;;;;;-143.48;85.74;77857.50;5094135;28;20052;-39
2022/09/28 03:39:55;;;;;;;1.05;0.55;;;;;;;-143.48;85.11;77855.50;5094049;28;20055;-39
2022/09/28 03:42:20;;;;;;;2.03;0.40;;;;;;;-143.48;85.59;77857.50;5093408;28;20051;-39
2022/09/28 03:44:46;;;;;;;3.42;0.88;;;;;;;-143.48;85.51;77861.47;5093723;28;20040;-39
2022/09/28 03:47:12;;;;;;;1.10;0.68;;;;;;;-143.48;84.84;77859.47;5094319;28;20442;-39
2022/09/28 03:49:38;;;;;;;0.63;0.50;;;;;;;-143.48;84.89;77877.31;5093729;28;20025;-39
2022/09/28 03:52:04;;;;;;;2.35;0.40;;;;;;;-143.48;85.10;77893.19;5094325;28;20134;-39
2022/09/28 03:54:29;;;;;;;2.67;0.45;;;;;;;-143.48;85.75;77881.28;5093990;28;20103;-38
2022/09/28 03:56:54;;;;;;;0.70;0.45;;;;;;;-143.48;85.44;77893.19;5093429;28;20035;-39
2022/09/28 03:59:20;;;;;;;1.45;0.60;;;;;;;-143.48;85.37;77903.09;5094236;28;20058;-39
2022/09/28 04:01:48;;;;;;;2.28;0.65;;;;;;;-143.48;85.63;77901.13;5093656;28;20028;-41
2022/09/28 04:04:14;;;;;;;1.35;0.70;;;;;;;-143.48;84.90;77901.13;5093453;28;20024;-39
2022/09/28 04:06:39;;;;;;;0.80;0.50;;;;;;;-143.48;85.28;77909.06;5075360;28;20169;-39
2022/09/28 04:09:04;;;;;;;4.35;0.70;;;;;;;-143.48;85.49;77911.03;5093531;28;20048;-38
2022/09/28 04:11:30;;;;;;;0.95;0.60;;;;;;;-143.48;85.21;77913.03;5094001;28;20024;-39
2022/09/28 04:13:55;;;;;;;4.13;0.52;;;;;;;-143.48;85.56;77903.09;5093907;28;20020;-40
2022/09/28 04:16:20;;;;;;;1.92;0.68;;;;;;;-143.48;85.08;77903.09;5093279;28;20478;-40
2022/09/28 04:18:47;;;;;;;1.65;0.50;;;;;;;-143.48;85.00;77918.97;5093527;28;20051;-40
2022/09/28 04:21:15;;;;;;;1.52;0.80;;;;;;;-143.48;85.13;77915.00;5075135;28;20024;-40
2022/09/28 04:23:42;;;;;;;0.55;0.50;;;;;;;-143.48;84.92;77928.88;5093510;28;20458;-40
2022/09/28 04:26:15;;;;;;;1.00;0.60;;;;;;;-143.48;84.89;77942.78;5075079;28;20059;-40
2022/09/28 04:31:24;;;;;;;2.78;1.15;;;;;;;-143.48;84.96;77948.72;5093988;28;20078;-40
2022/09/28 04:33:50;;;;;;;1.40;0.80;;;;;;;-143.48;85.46;77932.84;5093434;28;20020;-39
2022/09/28 04:36:16;;;;;;;2.22;1.60;;;;;;;-143.48;85.69;77936.81;5094165;28;20024;-40
2022/09/28 04:38:42;;;;;;;2.88;1.50;;;;;;;-143.48;85.29;77920.94;5097114;28;20020;-40
2022/09/28 04:41:07;;;;;;;5.78;3.13;;;;;;;-143.48;84.98;77930.88;5097124;28;20382;-40
2022/09/28 04:43:32;;;;;;;4.07;2.00;;;;;;;-143.48;85.23;77926.91;5096656;28;20398;-39
2022/09/28 04:46:01;;;;;;;4.57;1.90;;;;;;;-143.48;85.24;77924.91;5096728;28;20036;-39
2022/09/28 04:48:28;;;;;;;2.53;1.10;;;;;;;-143.48;84.97;77920.94;5097404;28;20081;-40
2022/09/28 04:50:58;;;;;;;1.60;1.10;;;;;;;-143.48;85.13;77920.94;5078401;28;20020;-40
2022/09/28 04:53:25;;;;;;;3.75;1.10;;;;;;;-143.48;84.79;77936.81;5097036;28;20073;-39
2022/09/28 04:55:56;;;;;;;2.25;1.08;;;;;;;-143.48;84.76;77948.72;5096846;28;20035;-39
2022/09/28 04:58:22;;;;;;;2.15;1.10;;;;;;;-143.48;85.13;77954.66;5078436;28;20027;-40
2022/09/28 05:00:50;;;;;;;1.92;1.10;;;;;;;-143.48;85.48;77942.78;5096483;28;20386;-40
2022/09/28 05:03:19;;;;;;;6.30;1.63;;;;;;;-143.48;84.92;77950.69;5096582;28;20034;-39
2022/09/28 05:05:46;;;;;;;1.77;1.10;;;;;;;-143.48;85.49;77932.84;5096382;28;20074;-40
2022/09/28 05:08:12;;;;;;;1.85;1.10;;;;;;;-143.48;85.26;77946.72;5078122;28;20489;-40
2022/09/28 05:10:40;;;;;;;3.35;1.30;;;;;;;-143.48;85.09;77944.75;5077985;28;20028;-40
2022/09/28 05:13:10;;;;;;;8.68;4.03;;;;;;;-143.48;85.36;77934.84;5077797;28;20028;-41
2022/09/28 05:15:38;;;;;;;6.30;2.95;;;;;;;-143.48;85.13;77948.72;5096683;28;20105;-39
2022/09/28 05:18:04;;;;;;;4.07;2.40;;;;;;;-143.48;85.14;77948.72;5077855;28;20489;-40
2022/09/28 05:20:29;;;;;;;3.55;1.83;;;;;;;-143.48;85.22;77946.72;5096200;28;20024;-39
2022/09/28 05:22:55;;;;;;;5.70;2.00;;;;;;;-143.48;85.22;77948.72;5096060;28;20028;-40
2022/09/28 05:25:20;;;;;;;4.72;2.20;;;;;;;-143.48;85.62;77956.66;5096121;28;20078;-40
2022/09/28 05:27:46;;;;;;;3.78;2.20;;;;;;;-143.48;85.57;77944.75;5095748;28;20478;-40
2022/09/28 05:30:12;;;;;;;3.92;1.98;;;;;;;-143.48;85.41;77948.72;5095772;28;20028;-40
2022/09/28 05:32:45;;;;;;;4.70;2.22;;;;;;;-143.48;85.07;77942.78;5060475;28;20024;-40
2022/09/28 05:35:11;;;;;;;4.40;1.88;;;;;;;-143.48;84.22;77960.63;5078102;28;20024;-40
2022/09/28 05:37:37;;;;;;;4.78;1.67;;;;;;;-143.48;83.85;77980.44;5096105;28;20062;-40
2022/09/28 05:40:04;;;;;;;4.38;1.75;;;;;;;-143.48;84.00;77996.31;5095660;28;20028;-39
2022/09/28 05:42:29;;;;;;;3.47;2.05;;;;;;;-143.48;84.78;77990.34;5095621;28;20043;-40
2022/09/28 05:44:57;;;;;;;5.88;2.13;;;;;;;-143.48;84.57;77996.31;5095586;28;20382;-39
2022/09/28 05:47:22;;;;;;;3.80;2.00;;;;;;;-143.48;85.07;77994.31;5095747;28;20356;-38
2022/09/28 05:49:47;;;;;;;5.65;1.90;;;;;;;-143.48;85.52;77980.44;5095256;28;20035;-37
2022/09/28 05:52:13;;;;;;;5.45;1.83;;;;;;;-143.48;85.54;77956.66;5095828;28;20024;-37
2022/09/28 05:54:38;;;;;;;3.15;1.55;;;;;;;-143.48;85.60;77950.69;5095745;28;20429;-40
2022/09/28 05:57:05;;;;;;;2.67;1.60;;;;;;;-143.48;85.28;77950.69;5095225;28;20108;-39
2022/09/28 05:59:30;;;;;;;1.77;1.30;;;;;;;-143.48;85.25;77938.81;5061167;28;20026;-40
2022/09/28 06:01:55;;;;;;;3.95;1.42;;;;;;;-143.48;85.49;77913.03;5095388;28;20028;-40
2022/09/28 06:04:21;;;;;;;3.03;1.45;;;;;;;-143.48;85.21;77924.91;5094879;28;20020;-40
2022/09/28 06:06:46;;;;;;;3.58;1.67;;;;;;;-143.48;85.56;77911.03;5095211;28;20472;-40
2022/09/28 06:09:12;;;;;;;5.25;1.73;;;;;;;-143.48;85.32;77887.25;5076697;28;20374;-40
2022/09/28 06:11:37;;;;;;;7.47;1.83;;;;;;;-143.48;85.47;77891.22;5094919;28;20031;-40
2022/09/28 06:14:03;;;;;;;4.82;1.75;;;;;;;-143.48;85.35;77885.25;5095290;28;20020;-40
2022/09/28 06:16:29;;;;;;;2.92;1.67;;;;;;;-143.48;85.32;77879.31;5095515;28;20039;-40
2022/09/28 06:18:54;;;;;;;2.55;1.80;;;;;;;-143.48;85.21;77879.31;5095292;28;20351;-38
2022/09/28 06:21:20;;;;;;;4.75;1.65;;;;;;;-143.48;84.73;77883.28;5094740;28;20020;-39
2022/09/28 06:23:45;;;;;;;2.85;1.60;;;;;;;-143.48;85.07;77875.34;5076641;28;20023;-39
2022/09/28 06:26:10;;;;;;;3.40;1.63;;;;;;;-143.48;85.08;77887.25;5095043;28;20080;-49
2022/09/28 06:28:36;;;;;;;5.45;1.60;;;;;;;-143.48;84.68;77877.31;5094505;28;20103;-39
2022/09/28 06:31:01;;;;;;;4.10;1.85;;;;;;;-143.48;85.39;77859.47;5094969;28;20035;-39
2022/09/28 06:33:27;;;;;;;2.22;1.50;;;;;;;-143.48;85.21;77851.56;5094634;28;20020;-40
2022/09/28 06:35:52;;;;;;;3.50;1.60;;;;;;;-143.48;85.25;77861.47;5094741;28;20098;-40
2022/09/28 06:38:18;;;;;;;5.95;1.90;;;;;;;-143.48;85.02;77841.63;5076290;28;20024;-40
2022/09/28 06:40:43;;;;;;;3.95;1.70;;;;;;;-143.48;84.27;77837.66;5094370;28;20108;-39
2022/09/28 06:43:13;;;;;;;9.27;1.90;;;;;;;-143.48;84.78;77835.69;5094510;28;20044;-40
2022/09/28 06:45:39;;;;;;;3.22;1.70;;;;;;;-143.48;84.57;77825.78;5094633;28;20028;-40
2022/09/28 06:48:06;;;;;;;6.53;1.70;;;;;;;-143.48;84.66;77817.84;5094211;28;20367;-39
2022/09/28 06:50:38;;;;;;;5.45;1.65;;;;;;;-143.48;83.92;77823.78;5094155;28;20032;-39
2022/09/28 06:53:05;;;;;;;3.15;1.65;;;;;;;-143.48;84.70;77809.91;5094423;28;20051;-39
2022/09/28 06:55:31;;;;;;;3.00;1.90;;;;;;;-143.48;83.81;77803.97;5094440;28;20020;-41
2022/09/28 06:58:02;;;;;;;4.75;1.52;;;;;;;-143.48;83.86;77811.88;5094087;28;20028;-39
2022/09/28 07:00:30;;;;;;;3.10;1.50;;;;;;;-143.48;84.04;77817.84;5076038;28;20028;-39
2022/09/28 07:02:55;;;;;;;3.58;1.30;;;;;;;-143.48;83.63;77798.00;5093625;28;20111;-39
2022/09/28 07:05:23;;;;;;;2.83;1.60;;;;;;;-143.48;83.44;77790.06;5094826;28;20491;-36
2022/09/28 07:07:48;;;;;;;2.97;1.60;;;;;;;-143.48;83.61;77786.13;5093674;28;20115;-36
2022/09/28 07:10:14;;;;;;;3.67;1.33;;;;;;;-143.48;83.77;77786.13;5094317;28;20098;-36
2022/09/28 07:12:39;;;;;;;3.65;1.60;;;;;;;-143.48;83.72;77782.16;5093832;28;20030;-41
2022/09/28 07:15:06;;;;;;;3.15;1.40;;;;;;;-143.48;83.47;77780.16;5093915;28;20092;-37
2022/09/28 07:17:33;;;;;;;2.70;1.55;;;;;;;-143.48;84.15;77756.38;5094124;28;20390;-36
2022/09/28 07:19:59;;;;;;;3.35;1.50;;;;;;;-143.48;83.33;77736.53;5094567;28;20020;-36
2022/09/28 07:22:24;;;;;;;2.67;1.20;;;;;;;-143.48;71.33;77119.91;5093704;28;20028;-36
2022/09/28 07:24:49;;;;;;;3.78;1.17;;;;;;;-143.48;52.82;76864.16;5093503;28;20462;-38
2022/09/28 07:27:15;;;;;;;2.92;0.82;;;;;;;-143.48;50.70;76739.25;5093679;28;20067;-37
2022/09/28 07:29:41;;;;;;;6.15;1.10;;;;;;;-143.48;47.52;76687.72;5093654;28;20028;-38
2022/09/28 07:32:07;;;;;;;2.67;0.90;;;;;;;-143.48;52.65;76913.72;5093988;28;20183;-37
2022/09/28 07:34:42;;;;;;;4.18;0.70;;;;;;;-143.48;60.19;77189.28;5075286;28;20127;-37
2022/09/28 07:37:11;;;;;;;3.65;0.98;;;;;;;-143.48;63.91;77284.47;5074910;28;20036;-37
2022/09/28 07:41:10;;;;;;;2.40;0.82;;;;;;;-143.48;63.64;77199.22;5058943;28;20016;-37
2022/09/28 07:42:23;;;;;;;3.92;0.60;;;;;;;-143.48;60.46;77094.13;5093286;28;20089;-38
2022/09/28 07:44:49;;;;;;;4.10;1.30;;;;;;;-143.48;56.12;77014.81;5075387;28;20488;-37
2022/09/28 07:47:14;;;;;;;3.30;0.82;;;;;;;-143.48;64.15;77298.34;5093327;28;20020;-37
2022/09/28 07:49:40;;;;;;;2.75;0.70;;;;;;;-143.48;68.30;77377.66;5093528;28;20035;-37
2022/09/28 07:52:05;;;;;;;1.98;0.60;;;;;;;-143.48;68.42;77326.09;5093685;28;20016;-36
2022/09/28 07:54:30;;;;;;;2.60;0.60;;;;;;;-143.48;67.45;77310.25;5093062;28;20024;-36
2022/09/28 07:56:56;;;;;;;5.10;0.85;;;;;;;-143.48;61.62;77106.03;5093286;28;20093;-35
2022/09/28 07:59:21;;;;;;;4.82;1.00;;;;;;;-143.48;58.83;77050.50;5093309;28;20028;-35
2022/09/28 08:01:48;;;;;;;3.45;0.82;;;;;;;-143.48;51.59;76693.66;5092960;28;20107;-37
2022/09/28 08:04:14;;;;;;;2.30;0.85;;;;;;;-143.48;48.70;76560.84;5093504;28;20036;-39
2022/09/28 08:06:39;;;;;;;5.30;1.02;;;;;;;-143.48;44.85;76432.00;5075767;28;20427;-38
2022/09/28 08:09:05;;;;;;;4.18;1.10;;;;;;;-143.48;44.29;76473.63;5093339;28;20088;-38
2022/09/28 08:11:30;;;;;;;5.57;1.05;;;;;;;-143.48;42.96;76392.34;5094143;28;20077;-38
2022/09/28 08:13:56;;;;;;;4.22;0.90;;;;;;;-143.48;42.33;76384.44;5097450;28;20435;-38
2022/09/28 08:16:22;;;;;;;4.55;0.90;;;;;;;-143.48;44.49;76394.34;5097888;28;20077;-36
2022/09/28 08:18:48;;;;;;;6.75;0.85;;;;;;;-143.48;43.66;76408.22;5096977;28;20020;-39
2022/09/28 08:23:58;;;;;;;2.42;0.80;;;;;;;-143.48;40.98;76299.19;5097521;28;20043;-38
2022/09/28 08:26:23;;;;;;;6.13;1.00;;;;;;;-143.48;41.93;76394.34;5097196;28;20378;-39
2022/09/28 08:28:49;;;;;;;2.78;0.90;;;;;;;-143.48;42.15;76358.66;5096870;28;20382;-39
2022/09/28 08:31:14;;;;;;;1.70;0.75;;;;;;;-143.48;41.10;76263.50;5096392;28;20113;-38
2022/09/28 08:33:40;;;;;;;2.55;0.80;;;;;;;-143.48;39.29;76188.19;5096842;28;20565;-39
2022/09/28 08:36:07;;;;;;;2.60;0.57;;;;;;;-143.48;39.16;76176.31;5096336;28;20109;-39
2022/09/28 08:38:33;;;;;;;2.10;0.77;;;;;;;-143.48;38.94;76196.13;5096210;28;20038;-39
2022/09/28 08:41:22;;;;;;;6.35;0.68;;;;;;;-143.48;40.07;76231.81;5096981;28;20103;-40
2022/09/28 08:44:03;;;;;;;4.60;0.80;;;;;;;-143.48;39.03;76198.09;5096636;28;20044;-39
2022/09/28 08:46:35;;;;;;;2.63;1.00;;;;;;;-143.48;37.86;76091.06;5097170;28;20026;-38
2022/09/28 08:49:09;;;;;;;3.20;0.60;;;;;;;-143.48;37.19;76112.88;5096547;28;20024;-40
2022/09/28 08:51:50;;;;;;;4.03;1.00;;;;;;;-143.48;36.77;76063.31;5095851;28;20020;-40
2022/09/28 08:54:38;;;;;;;1.92;0.73;;;;;;;-143.48;36.32;76112.88;5096144;28;20052;-41
2022/09/28 08:57:11;;;;;;;0.50;0.35;;;;;;;-143.48;35.66;76057.38;5077722;28;20117;-39
2022/09/28 08:59:51;;;;;;;4.47;0.80;;;;;;;-143.48;36.90;76027.66;5096181;28;20024;-41
2022/09/28 09:02:38;;;;;;;0.90;0.55;;;;;;;-143.48;37.36;76017.72;5094917;28;20110;-39
2022/09/28 09:05:06;;;;;;;3.92;0.82;;;;;;;-143.48;36.47;76025.66;5096222;28;20082;-40
2022/09/28 09:08:00;;;;;;;5.80;0.80;;;;;;;-143.48;36.62;75958.28;5096495;28;20051;-40
2022/09/28 09:10:35;;;;;;;2.97;0.77;;;;;;;-143.48;35.90;75910.69;5095982;28;20466;-40
2022/09/28 09:14:02;;;;;;;4.25;0.90;;;;;;;-143.48;33.89;75964.22;5078365;28;20020;-39
2022/09/28 09:16:58;;;;;;;0.88;0.50;;;;;;;-143.48;34.19;75934.50;4986936;28;20065;-39
2022/09/28 09:19:37;;;;;;;4.82;0.70;;;;;;;-143.48;37.01;76047.47;5013651;28;20437;-39
2022/09/28 09:22:20;;;;;;;1.83;0.52;;;;;;;-143.48;33.89;75912.69;5089485;28;20044;-39
2022/09/28 09:24:53;;;;;;;2.47;0.60;;;;;;;-143.48;35.53;75966.19;5093901;28;20020;-38
2022/09/28 09:27:37;;;;;;;4.10;0.68;;;;;;;-143.48;35.91;75950.34;5095361;28;20031;-39
2022/09/28 09:30:13;;;;;;;2.60;0.63;;;;;;;-143.48;35.79;75954.31;5095768;28;20027;-38
2022/09/28 09:33:09;;;;;;;0.60;0.45;;;;;;;-143.48;35.76;76025.66;5095936;28;20542;-38
2022/09/28 09:35:36;;;;;;;1.95;0.50;;;;;;;-143.48;37.89;76118.81;5094998;28;20137;-39
2022/09/28 09:38:27;;;;;;;1.70;0.63;;;;;;;-143.48;34.80;75964.22;5095877;28;20036;-38
2022/09/28 09:40:55;;;;;;;1.88;0.47;;;;;;;-143.48;38.63;76215.94;5094833;28;20039;-38
2022/09/28 09:43:32;;;;;;;2.88;0.63;;;;;;;-143.48;37.92;76132.69;5095530;28;20550;-38
2022/09/28 09:46:16;;;;;;;1.15;0.50;;;;;;;-143.48;41.08;76263.50;5095649;28;20119;-38
2022/09/28 09:49:14;;;;;;;0.43;0.30;;;;;;;-143.48;43.22;76632.22;5095515;28;20055;-38
2022/09/28 09:51:49;;;;;;;1.75;0.60;;;;;;;-143.48;45.18;76834.41;5094003;28;20497;-38
2022/09/28 09:54:38;;;;;;;4.85;0.77;;;;;;;-143.48;46.08;76759.09;5095183;28;20020;-37
2022/09/28 09:57:29;;;;;;;1.95;0.60;;;;;;;-143.48;48.02;76763.06;5095184;28;20024;-38
2022/09/28 09:59:57;;;;;;;1.17;0.68;;;;;;;-143.48;46.48;76665.91;5095094;28;20016;-37
2022/09/28 10:02:26;;;;;;;4.57;0.75;;;;;;;-143.48;45.37;76604.47;5095240;28;20059;-38
2022/09/28 10:05:00;;;;;;;3.78;0.73;;;;;;;-143.48;44.45;76570.75;5095589;28;20354;-39
2022/09/28 10:07:52;;;;;;;1.52;0.70;;;;;;;-143.48;46.97;76703.59;5094971;28;20035;-37
2022/09/28 10:10:26;;;;;;;4.75;1.00;;;;;;;-143.48;46.35;76725.38;5058528;28;20044;-38
2022/09/28 10:12:52;;;;;;;3.72;0.80;;;;;;;-143.48;48.99;76661.94;5095419;28;20031;-37
2022/09/28 10:15:22;;;;;;;2.92;0.80;;;;;;;-143.48;46.22;76556.88;5076795;28;20023;-37
2022/09/28 10:17:48;;;;;;;2.80;0.77;;;;;;;-143.48;46.11;76656.00;5094611;28;20024;-37
2022/09/28 10:20:15;;;;;;;3.38;1.02;;;;;;;-143.48;45.46;76622.31;5094575;28;20024;-38
2022/09/28 10:22:42;;;;;;;1.75;0.60;;;;;;;-143.48;47.38;76753.16;5094924;28;20027;-38
2022/09/28 10:25:11;;;;;;;2.30;0.90;;;;;;;-143.48;45.24;76707.53;5094684;28;20032;-37
2022/09/28 10:27:43;;;;;;;3.53;0.80;;;;;;;-143.48;47.11;76695.66;5094559;28;20115;-34
2022/09/28 10:30:08;;;;;;;2.35;0.70;;;;;;;-143.48;48.25;76667.91;5094702;28;20023;-38
2022/09/28 10:32:43;;;;;;;6.30;1.08;;;;;;;-143.48;51.79;76899.84;5094700;28;20026;-38
2022/09/28 10:35:17;;;;;;;3.40;0.90;;;;;;;-143.48;50.28;76935.53;5094372;28;20027;-36
2022/09/28 10:38:17;;;;;;;3.15;1.20;;;;;;;-143.48;52.08;76917.69;5094799;28;20093;-35
2022/09/28 10:40:57;;;;;;;1.75;0.82;;;;;;;-143.48;50.26;76687.72;5094548;28;20454;-36
2022/09/28 10:43:37;;;;;;;3.00;0.70;;;;;;;-143.48;45.88;76675.81;5094380;28;20052;-37
2022/09/28 10:46:10;;;;;;;3.92;0.50;;;;;;;-143.48;43.80;76665.91;5094448;28;20042;-36
2022/09/28 10:48:44;;;;;;;0.95;0.22;;;;;;;-143.48;41.15;76675.81;5094696;28;20024;-37
2022/09/28 10:51:10;;;;;;;0.90;0.38;;;;;;;-143.48;41.69;76638.16;5094148;28;20028;-38
2022/09/28 10:53:36;;;;;;;0.93;0.22;;;;;;;-143.48;41.90;76709.53;5094053;28;20020;-37
2022/09/28 10:56:19;;;;;;;1.20;0.40;;;;;;;-143.48;43.68;76826.50;5093962;28;20063;-37
2022/09/28 10:58:50;;;;;;;0.98;0.43;;;;;;;-143.48;50.86;76911.75;5094006;28;20034;-36
2022/09/28 11:01:20;;;;;;;3.00;0.60;;;;;;;-143.48;51.05;76961.31;5093865;28;20098;-36
2022/09/28 11:04:06;;;;;;;1.63;0.30;;;;;;;-143.48;52.81;77004.91;5094531;28;20088;-34
2022/09/28 11:06:38;;;;;;;1.73;0.70;;;;;;;-143.48;50.55;77004.91;5093732;28;20532;-34
2022/09/28 11:09:19;;;;;;;6.45;1.00;;;;;;;-143.48;53.98;77016.81;5093794;28;20032;-35
2022/09/28 11:11:46;;;;;;;2.70;1.38;;;;;;;-143.48;54.12;77048.53;5093734;28;20020;-36
2022/09/28 11:14:37;;;;;;;2.55;1.05;;;;;;;-143.48;50.71;76943.47;5075509;28;20038;-36
2022/09/28 11:17:25;;;;;;;4.18;0.70;;;;;;;-143.48;51.41;76991.03;5094152;28;20078;-35
2022/09/28 11:19:52;;;;;;;0.88;0.60;;;;;;;-143.48;51.12;76993.03;5093344;28;20044;-33
2022/09/28 11:22:29;;;;;;;3.72;0.47;;;;;;;-143.48;51.84;77012.84;5094286;28;20015;-34
2022/09/28 11:25:16;;;;;;;3.08;0.90;;;;;;;-143.48;55.17;77022.75;5093819;28;20031;-35
2022/09/28 11:27:54;;;;;;;5.13;0.57;;;;;;;-143.48;55.69;77026.72;5093787;28;20043;-35
2022/09/28 11:30:43;;;;;;;2.40;0.70;;;;;;;-143.48;55.08;77024.75;5094321;28;20032;-34
2022/09/28 11:33:17;;;;;;;7.55;0.52;;;;;;;-143.48;55.43;77024.75;5093828;28;20020;-33
2022/09/28 11:35:50;;;;;;;2.63;0.70;;;;;;;-143.48;56.31;77054.47;5093705;28;20102;-35
2022/09/28 11:38:36;;;;;;;2.05;0.50;;;;;;;-143.48;55.95;77056.47;5076073;28;20024;-35
2022/09/28 11:41:36;;;;;;;2.60;0.30;;;;;;;-143.48;55.73;77104.03;5094552;28;20077;-39
2022/09/28 11:44:26;;;;;;;0.70;0.17;;;;;;;-143.48;54.22;77195.25;5093132;28;20044;-36
2022/09/28 11:47:11;;;;;;;1.30;0.40;;;;;;;-143.48;56.43;77286.44;5092883;28;20466;-34